< Cyclone 201408 2014 Season Cyclone 201410 >
Cyclone 201409 (noname)
General InformationTrack Information on Google MapsDetailed Wind InformationList of All Images || ResourceGoogle EarthGE AnimationAtom FeedGeoJSON
Detalied Best Track (Time Zone = UTC)
Year Month Day Hour Lat. Long. Pressure (hPa) Wind (kt) Class Image Chart
2014 1 31 00 -14.2 123.7 1002 10 2 Image --
2014 1 31 06 -13.8 123.2 1001.75 10 2 Image --
2014 1 31 12 -13.4 123.3 1001.5 10 2 Image --
2014 1 31 18 -13.1 123.2 1001.25 10 2 Image --
2014 2 1 00 -13.1 123.0 1001 10 2 Image --
2014 2 1 06 -13.2 123.4 998 20 2 Image --
2014 2 1 09 -13.1 124.0 998 25 2 Image --
2014 2 1 12 -13.0 124.6 1000 25 2 Image --
2014 2 1 18 -13.1 125.3 999 25 2 Image --
2014 2 2 00 -13.4 125.9 998 35 3 Image --
2014 2 2 03 -13.4 126.5 997 35 3 Image --
2014 2 2 04 -13.6 126.7 997 35 3 Image --
2014 2 2 05 -13.7 126.9 996 35 3 Image --
2014 2 2 06 -13.7 127.0 996 35 3 Image --
2014 2 2 07 -13.8 127.2 996 35 3 Image --
2014 2 2 08 -13.9 127.4 996 35 3 Image --
2014 2 2 09 -14.0 127.7 994 35 3 Image --
2014 2 2 10 -14.1 127.8 993 35 3 Image --
2014 2 2 11 -14.1 128.0 993 35 3 Image --
2014 2 2 12 -14.1 128.1 995 35 3 Image --
2014 2 2 13 -14.2 128.2 995 35 3 Image --
2014 2 2 14 -14.2 128.3 992 40 3 Image --
2014 2 2 15 -14.2 128.4 991 40 3 Image --
2014 2 2 16 -14.4 128.7 989 45 3 Image --
2014 2 2 17 -14.5 128.8 989 45 3 Image --
2014 2 2 18 -14.5 128.9 984 50 4 Image --
2014 2 2 19 -14.5 129.0 984 50 4 Image --
2014 2 2 20 -14.6 129.1 984 50 4 Image --
2014 2 2 21 -14.7 129.2 986 50 4 Image --
2014 2 2 22 -14.7 129.3 985 50 4 Image --
2014 2 2 23 -14.8 129.4 985 50 4 Image --
2014 2 3 00 -14.8 129.5 987 50 4 Image --
2014 2 3 01 -14.8 129.6 984 55 4 Image --
2014 2 3 02 -14.9 129.7 984 55 4 Image --
2014 2 3 03 -15.0 129.7 982 55 4 Image --
2014 2 3 06 -15.1 129.9 989 40 3 Image --
2014 2 3 09 -15.2 130.2 994 30 2 Image --
2014 2 3 12 -15.2 130.6 995 30 2 Image --
2014 2 3 18 -15.2 131.1 995 30 2 Image --
2014 2 4 00 -15.5 132.1 998 25 2 Image --
2014 2 4 06 -15.7 132.8 997 25 2 Image --
2014 2 4 12 -16.3 133.5 997 25 2 Image --
2014 2 4 18 -16.7 133.0 997 25 2 Image --
2014 2 5 00 -17.4 132.5 998 20 2 Image --
2014 2 5 06 -17.7 132.4 997 20 2 Image --
2014 2 5 12 -17.7 132.0 998 20 2 Image --
2014 2 5 18 -17.4 131.0 997 20 2 Image --
2014 2 6 00 -17.3 130.7 998 25 2 Image --
2014 2 6 06 -17.2 130.2 997 20 2 Image --
2014 2 6 12 -16.6 129.7 999 20 2 Image --
2014 2 6 18 -16.2 129.2 995 20 2 Image --
2014 2 7 00 -15.9 128.8 996 20 2 Image --
2014 2 7 03 -15.9 128.9 995 25 2 Image --
2014 2 7 06 -15.9 128.7 993 25 2 Image --
2014 2 7 09 -15.8 128.5 993.5 25 0 Image --
2014 2 7 12 -15.8 128.3 994 25 0 Image --
2014 2 7 18 -15.9 128.1 994 25 0 Image --
2014 2 7 21 -16.1 127.8 994 25 0 Image --
2014 2 8 00 -16.1 127.5 994 25 2 Image --
2014 2 8 03 -16.2 127.3 993.5 25 0 Image --
2014 2 8 06 -16.3 127.0 993 25 2 Image --
2014 2 8 09 -16.5 126.7 993 25 2 Image --
2014 2 8 12 -16.6 126.4 992 25 2 Image --
2014 2 8 15 -16.7 126.1 992 25 2 Image --
2014 2 8 18 -16.9 125.7 988 25 2 Image --
2014 2 8 21 -17.0 125.3 988 25 2 Image --
2014 2 9 00 -17.1 124.9 988 25 2 Image --
2014 2 9 03 -17.2 124.5 988 25 2 Image --
2014 2 9 06 -17.3 124.2 988 25 2 Image --
2014 2 9 09 -17.7 124.0 988 25 2 Image --
2014 2 9 12 -17.8 123.8 988 25 2 Image --
2014 2 9 15 -18.0 123.6 990 25 2 Image --
2014 2 9 18 -18.4 123.1 990 25 2 Image --
2014 2 9 21 -18.7 122.6 988 25 2 Image --
2014 2 10 00 -19.0 122.3 992 30 2 Image --
2014 2 10 06 -19.6 121.9 991 27.5 0 Image --
2014 2 11 00 -20.8 121.4 990 25 2 Image --
2014 2 12 00 -23.6 121.6 990 22.5 0 Image --
2014 2 13 00 -25.4 123.7 990 20 2 Image --
< Cyclone 201408 2014 Season Cyclone 201410 >

Help